Swansea, Illinois
Current Conditions -  °F | °C
As of 9:28 AM on Monday 22 Dec 2014 (Local Time) from KBLV Reporting Station
Light Rain Light Rain  
Wind Chill: 36°   Ceiling: 700
Heat Index: 43°   Visibility: 6mi
Dew Point: 43°   Wind: 13mph
Humidity: 100%   Direction: 130°SE
Pressure: 29.75"   Gusts: NA
Location:  38.5093°N, 89.8955°W
Report Text: KBLV 221528Z AUTO 13011KT 6SM -RA BR OVC007 06/06 A2975 RMK AO2
Loading
Personal Weather Stations






























Interactive Weather Map New forecast layout! Learn more

10-Day Weather Forecast

Advertisements
Track Severe Weather on mobile